createdAt,value
2018-03-06T00:00:35.182Z,170.67
2018-03-06T00:03:02.744Z,191.70
2018-03-06T00:05:30.318Z,169.70
2018-03-06T00:07:57.908Z,177.43
2018-03-06T00:10:25.476Z,166.90
2018-03-06T00:12:53.057Z,194.73
2018-03-06T00:15:21.175Z,190.37
2018-03-06T00:17:48.769Z,184.17
2018-03-06T00:20:16.532Z,186.00
2018-03-06T00:22:44.395Z,191.13
2018-03-06T00:25:12.029Z,189.13
2018-03-06T00:27:39.589Z,171.60
2018-03-06T00:30:07.189Z,185.83
2018-03-06T00:32:34.752Z,213.33
2018-03-06T00:35:02.344Z,193.70
2018-03-06T00:37:30.423Z,182.53
2018-03-06T00:39:57.983Z,179.43
2018-03-06T00:42:25.592Z,197.93
2018-03-06T00:44:53.144Z,193.30
2018-03-06T00:47:20.717Z,191.70
2018-03-06T00:49:48.288Z,199.30
2018-03-06T00:52:16.480Z,191.57
2018-03-06T00:54:44.040Z,196.33
2018-03-06T00:57:11.611Z,208.23
2018-03-06T00:59:39.796Z,187.50
2018-03-06T01:02:07.364Z,201.40
2018-03-06T01:04:34.935Z,196.23
2018-03-06T01:07:02.527Z,199.43
2018-03-06T01:09:30.099Z,196.57
2018-03-06T01:11:57.664Z,193.67
2018-03-06T01:14:25.268Z,206.67
2018-03-06T01:16:53.858Z,191.57
2018-03-06T01:19:21.424Z,202.30
2018-03-06T01:21:49.591Z,195.27
2018-03-06T01:24:17.168Z,183.57
2018-03-06T01:26:44.745Z,198.37
2018-03-06T01:29:12.340Z,210.70
2018-03-06T01:31:39.899Z,191.07
2018-03-06T01:34:07.463Z,189.52
2018-03-06T01:36:35.052Z,217.70
2018-03-06T01:39:02.624Z,188.77
2018-03-06T01:41:30.186Z,193.87
2018-03-06T01:43:58.147Z,190.77
2018-03-06T01:46:25.732Z,200.93
2018-03-06T01:48:53.311Z,199.97
2018-03-06T01:51:20.924Z,185.85
2018-03-06T01:53:48.496Z,195.27
2018-03-06T01:56:16.429Z,196.20
2018-03-06T01:58:44.017Z,207.13
2018-03-06T02:01:11.580Z,196.20
2018-03-06T02:03:39.135Z,185.00
2018-03-06T02:06:07.417Z,197.50
2018-03-06T02:08:34.980Z,187.03
2018-03-06T02:11:02.564Z,196.80
2018-03-06T02:13:30.159Z,185.37
2018-03-06T02:15:57.730Z,204.30
2018-03-06T02:18:26.300Z,187.23
2018-03-06T02:20:53.896Z,185.87
2018-03-06T02:23:21.456Z,188.00
2018-03-06T02:25:49.007Z,185.83
2018-03-06T02:28:16.648Z,184.87
2018-03-06T02:30:44.228Z,183.63
2018-03-06T02:33:11.791Z,183.03
2018-03-06T02:35:39.379Z,187.47
2018-03-06T02:38:07.703Z,171.47
2018-03-06T02:40:35.478Z,181.53
2018-03-06T02:43:03.059Z,183.33
2018-03-06T02:45:30.636Z,196.17
2018-03-06T02:47:58.196Z,183.93
2018-03-06T02:50:26.088Z,184.53
2018-03-06T02:52:53.685Z,185.50
2018-03-06T02:55:21.239Z,192.67
2018-03-06T02:57:48.831Z,192.73
2018-03-06T03:00:16.638Z,200.55
2018-03-06T03:02:44.204Z,183.93
2018-03-06T03:05:11.796Z,178.33
2018-03-06T03:07:39.355Z,179.17
2018-03-06T03:10:06.916Z,194.30
2018-03-06T03:12:35.153Z,179.23
2018-03-06T03:15:02.724Z,193.97
2018-03-06T03:17:30.419Z,186.13
2018-03-06T03:19:58.820Z,186.30
2018-03-06T03:22:26.449Z,189.30
2018-03-06T03:24:54.012Z,178.13
2018-03-06T03:27:21.599Z,193.43
2018-03-06T03:29:49.164Z,176.30
2018-03-06T03:32:16.719Z,189.57
2018-03-06T03:34:44.528Z,190.47
2018-03-06T03:37:12.083Z,194.53
2018-03-06T03:39:39.644Z,176.20
2018-03-06T03:42:07.784Z,182.93
2018-03-06T03:44:35.350Z,190.80
2018-03-06T03:47:02.910Z,182.37
2018-03-06T03:49:30.511Z,185.95
2018-03-06T03:51:58.067Z,188.07
2018-03-06T03:54:25.633Z,184.27
2018-03-06T03:56:53.996Z,181.10
2018-03-06T03:59:21.563Z,195.57
2018-03-06T04:01:49.119Z,193.83
2018-03-06T04:04:16.750Z,188.30
2018-03-06T04:06:44.260Z,186.97
2018-03-06T04:09:11.815Z,192.40
2018-03-06T04:11:39.439Z,189.97
2018-03-06T04:14:07.768Z,191.03
2018-03-06T04:16:37.359Z,190.82
2018-03-06T04:19:05.517Z,195.37
2018-03-06T04:21:34.155Z,175.12
2018-03-06T04:24:01.720Z,174.07
2018-03-06T04:26:29.294Z,183.25
2018-03-06T04:28:56.855Z,187.17
2018-03-06T04:31:24.420Z,173.13
2018-03-06T04:33:52.009Z,194.93
2018-03-06T04:36:19.828Z,178.57
2018-03-06T04:38:47.470Z,196.43
2018-03-06T04:41:16.599Z,186.82
2018-03-06T04:43:44.163Z,189.67
2018-03-06T04:46:11.726Z,184.90
2018-03-06T04:48:39.350Z,177.23
2018-03-06T04:51:06.903Z,197.87
2018-03-06T04:53:34.468Z,174.25
2018-03-06T04:56:02.052Z,191.83
2018-03-06T04:58:29.599Z,186.33
2018-03-06T05:00:57.155Z,168.30
2018-03-06T05:03:25.315Z,178.77
2018-03-06T05:05:52.985Z,178.37
2018-03-06T05:08:20.550Z,169.77
2018-03-06T05:10:48.134Z,191.13
2018-03-06T05:13:17.209Z,175.05
2018-03-06T05:15:44.765Z,189.90
2018-03-06T05:18:12.343Z,171.23
2018-03-06T05:20:39.895Z,179.93
2018-03-06T05:23:07.812Z,184.90
2018-03-06T05:25:35.476Z,172.90
2018-03-06T05:28:03.832Z,174.37
2018-03-06T05:30:32.164Z,169.03
2018-03-06T05:32:59.770Z,188.47
2018-03-06T05:35:27.332Z,173.77
2018-03-06T05:37:54.978Z,190.37
2018-03-06T05:40:22.577Z,184.97
2018-03-06T05:42:50.131Z,182.43
2018-03-06T05:45:18.469Z,180.63
2018-03-06T05:47:46.835Z,173.90
2018-03-06T05:50:15.544Z,171.90
2018-03-06T05:52:43.104Z,192.93
2018-03-06T05:55:10.688Z,208.30
2018-03-06T05:57:39.016Z,187.83
2018-03-06T06:00:06.572Z,172.10
2018-03-06T06:02:34.191Z,190.50
2018-03-06T06:05:01.723Z,181.00
2018-03-06T06:07:29.275Z,179.57
2018-03-06T06:09:57.020Z,170.20
2018-03-06T06:12:24.580Z,182.80
2018-03-06T06:14:52.129Z,173.07
2018-03-06T06:17:19.712Z,164.48
2018-03-06T06:19:47.295Z,185.10
2018-03-06T06:22:16.592Z,171.48
2018-03-06T06:24:44.536Z,171.63
2018-03-06T06:27:12.099Z,186.80
2018-03-06T06:29:39.644Z,175.20
2018-03-06T06:32:07.648Z,182.97
2018-03-06T06:34:35.184Z,181.50
2018-03-06T06:37:02.735Z,164.40
2018-03-06T06:39:30.312Z,184.23
2018-03-06T06:41:57.856Z,171.70
2018-03-06T06:44:25.396Z,175.30
2018-03-06T06:46:53.010Z,167.87
2018-03-06T06:49:20.531Z,155.50
2018-03-06T06:51:48.100Z,175.67
2018-03-06T06:54:16.475Z,172.87
2018-03-06T06:56:44.012Z,161.67
2018-03-06T06:59:12.320Z,162.80
2018-03-06T07:01:39.888Z,160.90
2018-03-06T07:04:07.427Z,163.07
2018-03-06T07:06:34.963Z,162.37
2018-03-06T07:09:02.522Z,160.23
2018-03-06T07:11:30.859Z,172.47
2018-03-06T07:13:58.403Z,155.77
2018-03-06T07:16:25.995Z,155.73
2018-03-06T07:18:59.884Z,165.75
2018-03-06T07:21:27.463Z,156.37
2018-03-06T07:23:55.788Z,154.87
2018-03-06T07:26:23.832Z,156.07
2018-03-06T07:28:51.420Z,155.45
2018-03-06T07:31:18.978Z,177.35
2018-03-06T07:33:46.519Z,158.87
2018-03-06T07:36:15.996Z,148.02
2018-03-06T07:38:44.494Z,147.90
2018-03-06T07:41:12.160Z,162.40
2018-03-06T07:43:40.494Z,172.83
2018-03-06T07:46:08.032Z,153.77
2018-03-06T07:48:35.572Z,158.07
2018-03-06T07:51:03.145Z,160.90
2018-03-06T07:53:30.700Z,162.70
2018-03-06T07:55:58.266Z,162.90
2018-03-06T07:58:26.983Z,153.00
2018-03-06T08:00:54.556Z,177.40
2018-03-06T08:03:22.116Z,151.63
2018-03-06T08:05:50.480Z,165.57
2018-03-06T08:08:18.033Z,153.47
2018-03-06T08:10:45.684Z,161.27
2018-03-06T08:13:26.270Z,177.05
2018-03-06T08:22:17.126Z,180.27
2018-03-06T08:24:44.714Z,173.47
2018-03-06T08:27:13.129Z,170.40
2018-03-06T08:29:40.760Z,182.83
2018-03-06T08:32:08.319Z,156.33
2018-03-06T08:34:36.655Z,156.37
2018-03-06T08:37:04.252Z,170.60
2018-03-06T08:39:32.580Z,179.73
2018-03-06T08:42:00.139Z,168.50
2018-03-06T08:44:28.209Z,172.10
2018-03-06T08:46:55.768Z,177.97
2018-03-06T08:49:23.320Z,156.57
2018-03-06T08:51:52.753Z,169.73
2018-03-06T08:54:22.016Z,177.50
2018-03-06T08:56:50.401Z,166.70
2018-03-06T08:59:18.000Z,168.60
2018-03-06T09:01:45.551Z,166.53
2018-03-06T09:04:25.605Z,159.73
2018-03-06T09:13:23.179Z,165.67
2018-03-06T09:15:50.724Z,174.27
2018-03-06T09:18:18.264Z,169.67
2018-03-06T09:20:47.108Z,171.70
2018-03-06T09:23:15.491Z,171.32
2018-03-06T09:25:43.031Z,167.47
2018-03-06T09:28:10.693Z,168.03
2018-03-06T09:30:38.316Z,188.97
2018-03-06T09:33:06.628Z,183.37
2018-03-06T09:35:34.216Z,166.33
2018-03-06T09:38:01.764Z,179.80
2018-03-06T09:40:29.299Z,164.97
2018-03-06T09:42:56.912Z,169.13
2018-03-06T09:45:24.456Z,174.80
2018-03-06T09:47:52.004Z,169.77
2018-03-06T09:50:19.580Z,178.00
2018-03-06T09:52:47.116Z,167.27
2018-03-06T09:55:17.228Z,169.93
2018-03-06T09:57:44.792Z,171.07
2018-03-06T10:00:12.349Z,163.27
2018-03-06T10:02:39.945Z,163.23
2018-03-06T10:05:07.637Z,165.37
2018-03-06T10:07:35.191Z,190.83
2018-03-06T10:10:02.741Z,180.97
2018-03-06T10:12:30.363Z,181.83
2018-03-06T10:14:57.912Z,168.03
2018-03-06T10:17:25.505Z,171.75
2018-03-06T10:19:53.075Z,182.07
2018-03-06T10:22:20.687Z,189.40
2018-03-06T10:24:48.231Z,178.90
2018-03-06T10:27:16.940Z,178.23
2018-03-06T10:29:44.943Z,170.85
2018-03-06T10:32:12.492Z,183.55
2018-03-06T10:34:40.060Z,178.57
2018-03-06T10:37:07.608Z,178.60
2018-03-06T10:39:35.156Z,187.60
2018-03-06T10:42:02.720Z,177.80
2018-03-06T10:44:30.287Z,173.47
2018-03-06T10:46:57.840Z,188.20
2018-03-06T10:49:25.996Z,181.18
2018-03-06T10:51:53.555Z,177.82
2018-03-06T10:54:21.104Z,188.80
2018-03-06T10:56:48.692Z,186.23
2018-03-06T10:59:16.472Z,178.50
2018-03-06T11:01:44.076Z,191.67
2018-03-06T11:04:12.201Z,201.50
2018-03-06T11:06:39.759Z,175.00
2018-03-06T11:09:07.350Z,185.87
2018-03-06T11:11:35.402Z,188.67
2018-03-06T11:14:02.987Z,181.07
2018-03-06T11:16:30.744Z,174.63
2018-03-06T11:18:58.379Z,192.30
2018-03-06T11:21:25.978Z,179.93
2018-03-06T11:23:53.616Z,191.47
2018-03-06T11:26:21.247Z,174.70
2018-03-06T11:28:48.788Z,181.37
2018-03-06T11:31:17.020Z,189.77
2018-03-06T11:33:45.097Z,174.47
2018-03-06T11:36:12.688Z,181.48
2018-03-06T11:38:41.284Z,179.57
2018-03-06T11:41:09.851Z,172.57
2018-03-06T11:43:38.231Z,186.73
2018-03-06T11:46:06.202Z,170.80
2018-03-06T11:48:33.816Z,166.27
2018-03-06T11:51:01.363Z,168.30
2018-03-06T11:53:28.914Z,178.30
2018-03-06T11:55:56.839Z,178.55
2018-03-06T11:58:25.218Z,179.07
2018-03-06T12:00:52.837Z,178.90
2018-03-06T12:03:20.424Z,186.90
2018-03-06T12:05:48.042Z,177.67
2018-03-06T12:08:16.565Z,190.37
2018-03-06T12:10:44.156Z,177.50
2018-03-06T12:13:11.712Z,176.13
2018-03-06T12:15:39.323Z,181.30
2018-03-06T12:18:07.688Z,173.50
2018-03-06T12:20:35.331Z,184.60
2018-03-06T12:23:02.925Z,170.23
2018-03-06T12:25:30.767Z,185.23
2018-03-06T12:27:58.320Z,183.70
2018-03-06T12:30:25.888Z,167.13
2018-03-06T12:32:54.024Z,189.60
2018-03-06T12:35:22.415Z,189.13
2018-03-06T12:37:50.128Z,190.63
2018-03-06T12:40:18.279Z,175.53
2018-03-06T12:42:45.917Z,187.83
2018-03-06T12:45:23.871Z,189.98
2018-03-06T12:50:23.262Z,200.73
2018-03-06T12:52:51.601Z,192.20
2018-03-06T12:55:19.295Z,210.20
2018-03-06T12:57:46.920Z,182.77
2018-03-06T13:00:27.120Z,177.70
2018-03-06T13:07:50.521Z,179.87
2018-03-06T13:10:23.232Z,184.90
2018-03-06T13:12:52.247Z,177.23
2018-03-06T13:15:20.205Z,185.48
2018-03-06T13:17:49.719Z,183.57
2018-03-06T13:20:18.056Z,185.07
2018-03-06T13:22:45.665Z,190.82
2018-03-06T13:25:15.525Z,174.52
2018-03-06T13:27:43.104Z,172.50
2018-03-06T13:30:11.652Z,171.10
2018-03-06T13:32:39.959Z,168.27
2018-03-06T13:35:09.217Z,173.27
2018-03-06T13:37:36.768Z,178.47
2018-03-06T13:40:04.431Z,168.20
2018-03-06T13:42:32.520Z,163.27
2018-03-06T13:45:00.835Z,178.20
2018-03-06T13:47:28.388Z,163.80
2018-03-06T13:49:55.964Z,165.03
2018-03-06T13:52:23.978Z,171.43
2018-03-06T13:54:51.528Z,159.45
2018-03-06T13:57:19.117Z,168.63
2018-03-06T13:59:47.196Z,176.83
2018-03-06T14:02:16.422Z,164.95
2018-03-06T14:04:44.625Z,158.67
2018-03-06T14:07:15.053Z,160.90
2018-03-06T14:09:49.226Z,161.50
2018-03-06T14:12:16.904Z,161.57
2018-03-06T14:14:52.273Z,177.77
2018-03-06T14:17:29.851Z,158.20
2018-03-06T14:19:58.786Z,157.17
2018-03-06T14:22:27.272Z,156.57
2018-03-06T14:24:55.480Z,152.17
2018-03-06T14:27:23.060Z,155.40
2018-03-06T14:29:50.599Z,164.63
2018-03-06T14:32:18.235Z,154.53
2018-03-06T14:34:45.885Z,156.43
2018-03-06T14:37:20.201Z,164.18
2018-03-06T14:49:29.178Z,163.00
2018-03-06T14:51:56.723Z,171.30
2018-03-06T14:54:24.288Z,161.13
2018-03-06T14:56:51.868Z,158.57
2018-03-06T14:59:19.424Z,156.67
2018-03-06T15:01:47.034Z,161.47
2018-03-06T15:04:15.543Z,160.65
2018-03-06T15:06:43.094Z,158.40
2018-03-06T15:09:10.749Z,156.70
2018-03-06T15:11:39.404Z,152.70
2018-03-06T15:14:07.020Z,147.50
2018-03-06T15:16:34.579Z,158.23
2018-03-06T15:19:02.159Z,163.30
2018-03-06T15:21:29.701Z,153.70
2018-03-06T15:23:57.329Z,156.90
2018-03-06T15:26:24.959Z,154.27
2018-03-06T15:28:52.523Z,152.70
2018-03-06T15:31:20.922Z,156.20
2018-03-06T15:33:48.960Z,162.15
2018-03-06T15:36:16.606Z,159.03
2018-03-06T15:38:45.113Z,163.93
2018-03-06T15:41:13.120Z,164.60
2018-03-06T15:43:40.745Z,167.27
2018-03-06T15:46:08.312Z,157.17
2018-03-06T15:48:36.647Z,166.67
2018-03-06T15:51:04.195Z,158.03
2018-03-06T15:53:31.740Z,153.20
2018-03-06T15:55:59.740Z,155.10
2018-03-06T15:58:28.376Z,156.27
2018-03-06T16:00:55.929Z,163.60
2018-03-06T16:03:24.297Z,174.80
2018-03-06T16:05:53.160Z,171.07
2018-03-06T16:08:20.699Z,157.10
2018-03-06T16:10:48.264Z,171.00
2018-03-06T16:13:16.428Z,166.70
2018-03-06T16:15:43.983Z,154.83
2018-03-06T16:18:12.536Z,162.12
2018-03-06T16:20:40.137Z,180.67
2018-03-06T16:23:07.711Z,167.90
2018-03-06T16:25:35.439Z,177.87
2018-03-06T16:28:02.979Z,179.70
2018-03-06T16:30:30.563Z,177.07
2018-03-06T16:33:00.620Z,174.33
2018-03-06T16:35:28.237Z,188.00
2018-03-06T16:37:56.574Z,180.47
2018-03-06T16:40:26.887Z,188.20
2018-03-06T16:42:54.532Z,177.53
2018-03-06T16:45:22.938Z,183.30
2018-03-06T16:47:53.253Z,179.37
2018-03-06T16:53:07.764Z,195.87
2018-03-06T16:55:35.421Z,190.60
2018-03-06T16:58:03.866Z,196.67
2018-03-06T17:00:31.525Z,208.27
2018-03-06T17:02:59.182Z,215.63
2018-03-06T17:05:26.977Z,230.40
2018-03-06T17:07:54.556Z,208.10
2018-03-06T17:10:22.097Z,210.03
2018-03-06T17:12:49.641Z,221.97
2018-03-06T17:15:17.220Z,215.17
2018-03-06T17:17:44.886Z,215.73
2018-03-06T17:20:15.412Z,263.60
2018-03-06T17:22:43.784Z,222.53
2018-03-06T17:25:11.364Z,221.03
2018-03-06T17:27:38.961Z,226.23
2018-03-06T17:30:06.544Z,235.25
2018-03-06T17:32:34.100Z,217.67
2018-03-06T17:35:01.651Z,245.50
2018-03-06T17:37:29.215Z,226.97
2018-03-06T17:39:56.836Z,222.17
2018-03-06T17:42:25.326Z,235.33
2018-03-06T17:44:53.107Z,207.67
2018-03-06T17:47:20.643Z,230.53
2018-03-06T17:49:48.186Z,210.33
2018-03-06T17:52:16.572Z,232.30
2018-03-06T17:54:44.140Z,230.27
2018-03-06T17:57:11.757Z,232.37
2018-03-06T17:59:39.324Z,217.33
2018-03-06T18:02:06.939Z,220.80
2018-03-06T18:04:34.460Z,210.68
2018-03-06T18:07:02.736Z,223.50
2018-03-06T18:09:30.370Z,250.27
2018-03-06T18:14:31.456Z,223.65
2018-03-06T18:16:58.995Z,224.30
2018-03-06T18:19:26.962Z,229.23
2018-03-06T18:21:54.535Z,231.10
2018-03-06T18:24:22.081Z,225.43
2018-03-06T18:26:49.641Z,225.43
2018-03-06T18:29:17.501Z,223.03
2018-03-06T18:31:45.073Z,231.07
2018-03-06T18:34:12.681Z,225.47
2018-03-06T18:36:40.260Z,216.93
2018-03-06T18:39:07.822Z,229.03
2018-03-06T18:41:37.508Z,218.40
2018-03-06T18:44:05.606Z,213.83
2018-03-06T18:46:33.212Z,216.23
2018-03-06T18:49:00.757Z,226.73
2018-03-06T18:51:28.389Z,228.75
2018-03-06T18:53:56.027Z,231.07
2018-03-06T18:56:23.624Z,239.73
2018-03-06T18:58:51.269Z,228.20
2018-03-06T19:04:30.989Z,225.90
2018-03-06T19:07:14.426Z,226.43
2018-03-06T19:09:44.390Z,223.73
2018-03-06T19:12:11.936Z,233.07
2018-03-06T19:14:39.484Z,232.15
2018-03-06T19:17:07.202Z,229.63
2018-03-06T19:19:34.859Z,235.73
2018-03-06T19:22:02.490Z,228.88
2018-03-06T19:24:30.080Z,241.10
2018-03-06T19:26:57.697Z,247.00
2018-03-06T19:29:25.310Z,253.23
2018-03-06T19:31:52.944Z,244.10
2018-03-06T19:34:20.577Z,234.43
2018-03-06T19:36:48.232Z,237.43
2018-03-06T19:39:16.599Z,239.43
2018-03-06T19:41:44.285Z,231.97
2018-03-06T19:44:12.758Z,225.90
2018-03-06T19:46:40.650Z,232.93
2018-03-06T19:49:08.196Z,208.30
2018-03-06T19:51:36.026Z,207.20
2018-03-06T19:54:03.925Z,211.20
2018-03-06T19:56:31.515Z,196.43
2018-03-06T19:58:59.087Z,184.70
2018-03-06T20:01:26.731Z,189.98
2018-03-06T20:03:54.280Z,159.43
2018-03-06T20:06:21.828Z,166.80
2018-03-06T20:08:49.550Z,190.17
2018-03-06T20:11:17.136Z,177.50
2018-03-06T20:13:44.785Z,197.93
2018-03-06T20:16:12.549Z,181.33
2018-03-06T20:18:40.089Z,172.30
2018-03-06T20:21:07.840Z,171.43
2018-03-06T20:23:35.456Z,169.62
2018-03-06T20:26:03.039Z,163.73
2018-03-06T20:28:30.612Z,139.43
2018-03-06T20:31:03.782Z,142.53
2018-03-06T20:33:31.348Z,140.47
2018-03-06T20:35:59.024Z,135.95
2018-03-06T20:38:32.396Z,132.57
2018-03-06T20:40:59.980Z,132.43
2018-03-06T20:43:27.533Z,139.65
2018-03-06T20:46:01.364Z,148.40
2018-03-06T20:48:29.008Z,145.30
2018-03-06T20:50:56.575Z,146.70
2018-03-06T20:53:29.928Z,136.90
2018-03-06T20:55:57.490Z,138.77
2018-03-06T20:58:25.804Z,143.10
2018-03-06T21:00:53.700Z,156.23
2018-03-06T21:03:21.280Z,165.80
2018-03-06T21:05:48.879Z,156.63
2018-03-06T21:08:19.042Z,160.80
2018-03-06T21:10:46.608Z,178.87
2018-03-06T21:13:16.308Z,186.60
2018-03-06T21:15:43.999Z,168.00
2018-03-06T21:18:12.415Z,178.03
2018-03-06T21:20:40.704Z,180.97
2018-03-06T21:23:08.862Z,170.97
2018-03-06T21:25:40.476Z,183.68
2018-03-06T21:28:08.088Z,183.23
2018-03-06T21:30:35.651Z,210.27
2018-03-06T21:33:03.289Z,198.13
2018-03-06T21:35:30.839Z,241.60
2018-03-06T21:37:59.247Z,212.70
2018-03-06T21:40:26.896Z,182.57
2018-03-06T21:42:54.494Z,155.30
2018-03-06T21:45:22.211Z,156.93
2018-03-06T21:47:51.332Z,145.70
2018-03-06T21:50:18.924Z,151.07
2018-03-06T21:52:46.521Z,148.30
2018-03-06T21:55:15.543Z,151.68
2018-03-06T21:57:43.091Z,137.40
2018-03-06T22:00:10.672Z,151.93
2018-03-06T22:02:38.221Z,147.87
2018-03-06T22:05:05.765Z,149.23
2018-03-06T22:07:33.394Z,160.82
2018-03-06T22:10:00.976Z,165.40
2018-03-06T22:12:29.286Z,166.90
2018-03-06T22:14:56.872Z,170.57
2018-03-06T22:17:24.419Z,167.50
2018-03-06T22:19:51.957Z,156.93
2018-03-06T22:22:19.532Z,157.88
2018-03-06T22:24:47.130Z,146.23
2018-03-06T22:27:25.736Z,153.20
2018-03-06T22:32:54.937Z,146.63
2018-03-06T22:35:22.476Z,150.10
2018-03-06T22:37:50.012Z,151.40
2018-03-06T22:40:18.339Z,151.87
2018-03-06T22:42:45.876Z,133.77
2018-03-06T22:45:15.388Z,132.70
2018-03-06T22:47:43.482Z,126.77
2018-03-06T22:50:11.528Z,126.53
2018-03-06T22:52:39.084Z,135.03
2018-03-06T22:55:06.669Z,132.90
2018-03-06T22:57:34.211Z,116.73
2018-03-06T23:00:01.756Z,111.87
2018-03-06T23:02:29.348Z,111.27
2018-03-06T23:04:56.955Z,107.23
2018-03-06T23:07:25.268Z,116.77
2018-03-06T23:09:53.376Z,112.60
2018-03-06T23:12:20.918Z,111.57
2018-03-06T23:14:49.314Z,106.40
2018-03-06T23:17:16.811Z,121.55
2018-03-06T23:19:44.356Z,110.57
2018-03-06T23:22:11.899Z,136.03
2018-03-06T23:24:39.488Z,124.93
2018-03-06T23:27:07.032Z,105.20
2018-03-06T23:29:34.575Z,100.95
2018-03-06T23:32:09.544Z,119.97
2018-03-06T23:34:37.128Z,94.07
2018-03-06T23:37:04.704Z,100.70
2018-03-06T23:39:32.346Z,89.63
2018-03-06T23:41:59.891Z,103.53
2018-03-06T23:44:27.430Z,90.70
2018-03-06T23:46:54.999Z,82.07
2018-03-06T23:49:22.539Z,84.70
2018-03-06T23:51:51.062Z,88.70
2018-03-06T23:54:19.439Z,90.12
2018-03-06T23:56:47.003Z,95.53
2018-03-06T23:59:16.459Z,101.40
